Time;durP1;ratioP1;P1;durP2;ratioP2;P2;SDS_P1;SDS_P2;PMS_P1;PMS_P2;Temp;Humidity;BMP_temperature;BMP_pressure;BME280_temperature;BME280_humidity;BME280_pressure;Samples;Min_cycle;Max_cycle;Signal;HPM_P1;HPM_P2
2023/07/06 00:00:15;;;;;;;13.40;9.60;;;;;;;23.83;60.48;100495.70;107939;1261;72830;-77
2023/07/06 00:02:43;;;;;;;11.70;8.90;;;;;;;23.80;60.53;100499.19;107894;1256;72663;-76
2023/07/06 00:05:11;;;;;;;12.00;9.20;;;;;;;23.77;60.66;100500.50;107834;1260;62020;-77
2023/07/06 00:07:38;;;;;;;11.40;9.60;;;;;;;23.74;60.90;100495.74;107919;1256;61261;-77
2023/07/06 00:10:06;;;;;;;10.90;9.30;;;;;;;23.73;60.92;100491.13;107875;1257;74767;-76
2023/07/06 00:12:34;;;;;;;15.10;10.00;;;;;;;23.74;61.19;100492.17;107886;1256;72496;-77
2023/07/06 00:15:04;;;;;;;12.80;10.00;;;;;;;23.75;61.29;100492.80;107928;1256;72445;-77
2023/07/06 00:17:32;;;;;;;17.10;9.50;;;;;;;23.75;61.53;100492.05;107901;1256;61974;-76
2023/07/06 00:19:59;;;;;;;14.10;10.00;;;;;;;23.75;61.43;100495.23;107621;1256;61341;-78
2023/07/06 00:22:26;;;;;;;12.10;9.30;;;;;;;23.75;61.64;100491.48;107647;1256;74677;-76
2023/07/06 00:24:53;;;;;;;11.30;9.00;;;;;;;23.76;61.60;100489.50;107939;1256;70719;-78
2023/07/06 00:27:20;;;;;;;11.60;9.20;;;;;;;23.77;61.58;100491.70;107751;1256;72496;-78
2023/07/06 00:29:56;;;;;;;13.90;9.40;;;;;;;23.79;61.36;100487.52;107924;1256;62011;-77
2023/07/06 00:32:27;;;;;;;10.70;8.50;;;;;;;23.80;61.23;100487.12;107693;1262;60180;-77
2023/07/06 00:34:55;;;;;;;14.70;9.40;;;;;;;23.82;61.27;100483.01;107897;1256;73124;-77
2023/07/06 00:37:22;;;;;;;11.80;9.00;;;;;;;23.82;61.11;100478.45;107877;1256;71607;-77
2023/07/06 00:39:49;;;;;;;11.40;9.40;;;;;;;23.84;61.08;100477.23;107848;1256;72667;-76
2023/07/06 00:42:17;;;;;;;13.70;9.20;;;;;;;23.85;61.04;100480.86;107822;1256;60513;-77
2023/07/06 00:44:52;;;;;;;13.40;10.20;;;;;;;23.87;61.13;100480.21;107918;1256;60995;-76
2023/07/06 00:47:45;;;;;;;13.20;10.20;;;;;;;23.88;61.08;100484.12;107757;1256;74437;-76
2023/07/06 00:50:15;;;;;;;12.40;10.00;;;;;;;23.85;61.15;100491.75;107912;1256;71505;-76
2023/07/06 00:52:54;;;;;;;13.90;9.30;;;;;;;23.84;61.15;100493.53;107828;1256;72562;-77
2023/07/06 00:55:25;;;;;;;11.90;9.40;;;;;;;23.83;61.41;100493.67;107945;1256;61961;-77
2023/07/06 00:57:54;;;;;;;11.50;9.50;;;;;;;23.82;61.57;100495.59;107977;1256;61269;-77
2023/07/06 01:00:21;;;;;;;13.60;9.50;;;;;;;23.80;61.66;100499.83;107873;1258;73296;-76
2023/07/06 01:02:53;;;;;;;13.30;9.50;;;;;;;23.79;61.74;100495.48;107623;1262;72713;-75
2023/07/06 01:05:21;;;;;;;11.20;9.40;;;;;;;23.77;61.86;100495.52;107898;1256;72717;-76
2023/07/06 01:07:51;;;;;;;12.20;9.90;;;;;;;23.76;62.11;100493.70;107845;1256;61992;-75
2023/07/06 01:10:17;;;;;;;13.00;10.30;;;;;;;23.77;62.41;100495.27;107778;1256;61168;-74
2023/07/06 01:12:46;;;;;;;12.70;10.40;;;;;;;23.77;62.61;100498.88;107914;1256;74712;-76
2023/07/06 01:15:16;;;;;;;13.80;10.10;;;;;;;23.77;62.87;100497.79;107845;1256;72844;-76
2023/07/06 01:18:01;;;;;;;13.60;10.30;;;;;;;23.76;63.08;100497.06;107621;1256;72552;-76
2023/07/06 01:20:49;;;;;;;13.00;10.50;;;;;;;23.77;63.34;100491.23;107818;1256;61948;-76
2023/07/06 01:23:49;;;;;;;13.40;11.10;;;;;;;23.76;63.63;100494.16;107915;1256;61109;-77
2023/07/06 01:26:35;;;;;;;12.50;10.70;;;;;;;23.74;63.52;100496.46;107933;1262;73640;-77
2023/07/06 01:29:20;;;;;;;14.70;10.40;;;;;;;23.72;63.50;100494.45;107939;1256;71929;-76
2023/07/06 01:31:55;;;;;;;11.10;9.80;;;;;;;23.70;63.55;100493.08;107887;1256;72515;-76
2023/07/06 01:34:27;;;;;;;13.80;10.30;;;;;;;23.69;63.64;100491.48;107776;1256;61872;-77
2023/07/06 01:37:18;;;;;;;13.30;10.60;;;;;;;23.69;63.58;100494.05;107927;1256;61013;-76
2023/07/06 01:39:45;;;;;;;11.00;9.80;;;;;;;23.66;63.51;100494.26;107878;1261;73549;-76
2023/07/06 01:42:23;;;;;;;12.20;10.40;;;;;;;23.63;63.40;100493.93;107903;1257;71248;-76
2023/07/06 01:44:51;;;;;;;11.60;10.00;;;;;;;23.62;63.32;100490.02;107964;1256;71718;-76
2023/07/06 01:47:21;;;;;;;11.20;10.00;;;;;;;23.57;63.47;100488.45;107849;1256;61222;-76
2023/07/06 01:49:51;;;;;;;11.50;9.90;;;;;;;23.45;63.62;100490.06;107903;1257;60398;-76
2023/07/06 01:52:28;;;;;;;12.00;9.90;;;;;;;23.37;63.84;100496.85;107714;1256;73212;-75
2023/07/06 01:55:00;;;;;;;12.10;9.40;;;;;;;23.34;64.13;100498.34;107892;1256;72810;-75
2023/07/06 01:57:32;;;;;;;12.50;9.80;;;;;;;23.34;64.55;100497.63;107935;1257;72714;-76
2023/07/06 02:00:14;;;;;;;12.90;9.90;;;;;;;23.34;64.57;100495.74;107766;1256;61871;-76
2023/07/06 02:02:44;;;;;;;11.70;9.60;;;;;;;23.31;64.89;100494.09;107569;1256;61340;-76
2023/07/06 02:05:13;;;;;;;12.80;9.90;;;;;;;23.27;64.88;100492.42;107948;1256;74716;-77
2023/07/06 02:07:41;;;;;;;13.70;10.60;;;;;;;23.23;65.17;100496.36;107732;1256;73034;-77
2023/07/06 02:10:13;;;;;;;11.00;9.80;;;;;;;23.22;65.20;100495.54;107931;1256;71339;-77
2023/07/06 02:12:42;;;;;;;12.80;9.80;;;;;;;23.20;65.49;100493.52;107700;1258;61152;-76
2023/07/06 02:15:10;;;;;;;12.00;9.90;;;;;;;23.11;65.82;100490.48;107965;1257;60210;-75
2023/07/06 02:17:38;;;;;;;12.50;10.40;;;;;;;23.06;66.33;100488.78;107926;1256;74491;-78
2023/07/06 02:20:08;;;;;;;12.10;10.20;;;;;;;23.07;66.75;100490.59;107864;1256;72908;-77
2023/07/06 02:22:35;;;;;;;12.40;10.10;;;;;;;23.14;66.93;100490.80;107909;1256;72742;-77
2023/07/06 02:25:03;;;;;;;12.10;10.60;;;;;;;23.09;66.97;100487.43;107856;1256;62052;-75
2023/07/06 02:27:32;;;;;;;13.20;11.00;;;;;;;22.98;67.18;100487.59;107934;1256;61089;-77
2023/07/06 02:29:59;;;;;;;12.40;10.70;;;;;;;22.97;67.46;100482.63;108043;1256;74745;-77
2023/07/06 02:32:27;;;;;;;12.80;10.80;;;;;;;22.95;67.62;100474.65;107885;1256;71656;-77
2023/07/06 02:34:54;;;;;;;13.50;10.00;;;;;;;22.94;67.85;100468.58;107929;1256;72456;-77
2023/07/06 02:37:23;;;;;;;11.50;10.30;;;;;;;22.94;67.73;100468.55;107845;1257;61942;-77
2023/07/06 02:39:52;;;;;;;12.00;10.70;;;;;;;22.91;67.66;100465.80;107724;1256;61097;-77
2023/07/06 02:42:19;;;;;;;12.60;10.90;;;;;;;22.89;67.52;100469.54;107852;1259;74695;-77
2023/07/06 02:44:46;;;;;;;14.00;11.00;;;;;;;22.90;67.61;100471.08;107781;1257;72711;-77
2023/07/06 02:47:13;;;;;;;12.70;11.10;;;;;;;22.98;67.52;100465.09;107956;1257;72662;-77
2023/07/06 02:49:40;;;;;;;12.20;9.80;;;;;;;23.04;67.51;100461.06;107865;1257;61263;-77
2023/07/06 02:52:06;;;;;;;12.50;10.40;;;;;;;23.05;67.46;100463.05;107958;1256;61574;-77
2023/07/06 02:54:33;;;;;;;12.60;10.70;;;;;;;23.06;67.48;100459.40;107962;1262;74686;-77
2023/07/06 02:57:01;;;;;;;13.10;11.00;;;;;;;23.08;67.36;100461.66;107937;1257;73507;-77
2023/07/06 02:59:31;;;;;;;13.30;10.60;;;;;;;23.17;67.38;100467.61;107937;1256;72506;-77
2023/07/06 03:01:58;;;;;;;12.90;10.50;;;;;;;23.25;67.36;100467.36;108022;1262;61895;-77
2023/07/06 03:04:27;;;;;;;13.60;10.60;;;;;;;23.32;67.14;100464.63;107933;1256;60169;-77
2023/07/06 03:06:55;;;;;;;12.20;10.20;;;;;;;23.42;66.83;100465.37;107774;1259;74610;-79
2023/07/06 03:09:23;;;;;;;11.80;10.30;;;;;;;23.47;66.85;100462.70;107839;1256;72734;-75
2023/07/06 03:11:52;;;;;;;13.60;10.50;;;;;;;23.49;66.58;100468.46;107894;1257;71444;-75
2023/07/06 03:14:21;;;;;;;12.60;10.40;;;;;;;23.53;66.45;100473.24;107950;1257;61995;-76
2023/07/06 03:16:53;;;;;;;13.00;10.30;;;;;;;23.55;66.10;100477.59;107683;1260;61101;-77
2023/07/06 03:19:21;;;;;;;14.30;10.90;;;;;;;23.55;65.92;100471.67;107837;1256;74748;-77
2023/07/06 03:21:48;;;;;;;12.30;10.50;;;;;;;23.64;66.09;100462.35;107844;1256;72631;-76
2023/07/06 03:24:15;;;;;;;12.50;10.30;;;;;;;23.77;65.91;100455.63;107974;1257;72616;-77
2023/07/06 03:26:42;;;;;;;12.60;10.10;;;;;;;23.90;65.77;100453.48;107958;1256;61799;-77
2023/07/06 03:29:12;;;;;;;12.00;10.80;;;;;;;24.01;65.23;100447.99;107766;1260;60124;-76
2023/07/06 03:31:38;;;;;;;11.60;9.70;;;;;;;24.11;64.93;100445.77;107814;1262;73533;-78
2023/07/06 03:34:08;;;;;;;12.90;10.20;;;;;;;24.20;64.24;100446.45;107885;1257;73076;-77
2023/07/06 03:36:36;;;;;;;12.90;10.30;;;;;;;24.25;63.79;100442.20;107850;1257;72626;-78
2023/07/06 03:39:05;;;;;;;12.90;10.50;;;;;;;24.30;63.47;100441.48;107900;1257;61595;-78
2023/07/06 03:41:32;;;;;;;11.60;10.20;;;;;;;24.38;63.37;100433.70;107686;1258;61155;-77
2023/07/06 03:43:59;;;;;;;12.00;10.20;;;;;;;24.44;63.06;100434.13;107698;1260;74454;-76
2023/07/06 03:46:32;;;;;;;13.50;10.30;;;;;;;24.47;63.09;100431.15;107838;1257;72747;-76
2023/07/06 03:49:03;;;;;;;11.70;10.40;;;;;;;24.49;63.21;100426.20;107882;1258;71234;-77
2023/07/06 03:51:35;;;;;;;14.50;10.80;;;;;;;24.49;63.31;100422.14;107844;1262;61837;-77
2023/07/06 03:54:08;;;;;;;12.90;10.00;;;;;;;24.52;63.22;100419.73;108130;1257;61147;-76
2023/07/06 03:56:38;;;;;;;13.10;11.10;;;;;;;24.55;62.82;100412.33;107913;1256;74581;-76
2023/07/06 03:59:06;;;;;;;12.90;10.70;;;;;;;24.55;62.39;100410.67;107843;1256;71722;-76
2023/07/06 04:01:33;;;;;;;12.60;10.40;;;;;;;24.54;62.16;100408.76;107916;1261;72691;-77
2023/07/06 04:04:00;;;;;;;11.60;10.30;;;;;;;24.58;62.07;100411.20;108004;1256;62056;-78
2023/07/06 04:06:28;;;;;;;13.50;10.20;;;;;;;24.64;62.01;100408.94;107971;1257;61330;-77
2023/07/06 04:08:56;;;;;;;12.90;10.90;;;;;;;24.66;61.88;100408.73;107967;1256;74610;-77
2023/07/06 04:11:24;;;;;;;15.10;11.20;;;;;;;24.69;61.99;100401.84;107864;1257;72541;-77
2023/07/06 04:13:57;;;;;;;12.10;10.50;;;;;;;24.75;61.86;100399.41;108080;1257;73113;-77
2023/07/06 04:16:24;;;;;;;13.50;11.60;;;;;;;24.80;61.67;100396.94;108108;1257;62081;-76
2023/07/06 04:18:52;;;;;;;12.90;10.60;;;;;;;24.84;61.59;100391.89;107931;1256;60289;-74
2023/07/06 04:21:22;;;;;;;15.30;11.10;;;;;;;24.90;61.55;100392.40;108091;1256;73412;-75
2023/07/06 04:23:49;;;;;;;13.40;10.90;;;;;;;24.96;61.59;100394.79;108003;1257;71407;-76
2023/07/06 04:26:21;;;;;;;12.40;10.50;;;;;;;25.01;61.60;100393.64;107751;1256;72730;-77
2023/07/06 04:28:49;;;;;;;12.00;10.50;;;;;;;25.05;61.60;100388.96;107936;1261;61178;-77
2023/07/06 04:31:18;;;;;;;11.60;10.40;;;;;;;25.09;61.43;100387.40;107861;1256;61291;-76
2023/07/06 04:33:47;;;;;;;11.40;9.70;;;;;;;25.09;61.45;100388.35;107888;1257;73275;-76
2023/07/06 04:36:17;;;;;;;12.40;11.00;;;;;;;25.07;61.32;100383.92;107746;1257;72698;-77
2023/07/06 04:38:44;;;;;;;14.40;11.10;;;;;;;25.08;61.22;100387.38;107606;1257;72050;-77
2023/07/06 04:41:13;;;;;;;13.70;10.90;;;;;;;25.11;61.28;100386.60;107894;1262;61128;-78
2023/07/06 04:43:44;;;;;;;11.70;10.50;;;;;;;25.21;61.23;100389.17;107861;1256;61139;-75
2023/07/06 04:46:20;;;;;;;12.90;10.80;;;;;;;25.31;61.05;100389.36;107711;1262;74662;-77
2023/07/06 04:48:53;;;;;;;13.00;10.90;;;;;;;25.48;60.92;100386.00;107703;1262;71555;-76
2023/07/06 04:51:25;;;;;;;12.50;10.40;;;;;;;25.66;60.31;100384.95;107754;1257;72789;-76
2023/07/06 04:53:58;;;;;;;13.40;11.20;;;;;;;25.76;59.92;100388.23;107649;1259;62068;-76
2023/07/06 04:56:32;;;;;;;13.00;10.60;;;;;;;25.84;59.80;100385.70;107945;1262;61107;-76
2023/07/06 04:59:10;;;;;;;16.20;10.50;;;;;;;25.92;59.92;100382.39;107890;1262;74923;-77
2023/07/06 05:01:38;;;;;;;11.00;9.60;;;;;;;25.99;59.86;100389.84;107840;1257;71276;-76
2023/07/06 05:04:05;;;;;;;12.90;10.60;;;;;;;26.07;59.88;100386.63;107695;1259;72647;-75
2023/07/06 05:06:34;;;;;;;12.20;9.60;;;;;;;26.16;59.81;100384.10;107971;1256;61993;-75
2023/07/06 05:09:04;;;;;;;11.90;9.70;;;;;;;26.30;59.96;100382.68;107835;1256;61219;-76
2023/07/06 05:11:31;;;;;;;11.50;10.30;;;;;;;26.48;59.75;100387.42;107970;1258;73259;-77
2023/07/06 05:13:58;;;;;;;14.90;10.30;;;;;;;26.68;59.04;100394.28;107906;1257;72549;-76
2023/07/06 05:16:27;;;;;;;10.50;9.40;;;;;;;26.89;58.34;100395.67;107833;1261;72659;-76
2023/07/06 05:19:00;;;;;;;11.00;9.70;;;;;;;27.08;57.14;100404.46;108002;1262;61174;-76
2023/07/06 05:21:33;;;;;;;10.70;9.60;;;;;;;27.18;56.73;100404.06;107985;1257;61141;-76
2023/07/06 05:24:03;;;;;;;;;;;;;;;27.23;56.48;100405.69;107888;1257;74691;-76
2023/07/06 05:26:30;;;;;;;11.30;9.50;;;;;;;27.30;56.12;100407.81;107867;1257;72953;-76
2023/07/06 05:28:57;;;;;;;11.40;10.20;;;;;;;27.42;56.20;100412.33;107677;1257;72688;-76
2023/07/06 05:31:26;;;;;;;11.20;10.00;;;;;;;27.53;56.05;100406.96;107883;1258;61665;-77
2023/07/06 05:33:53;;;;;;;12.60;9.90;;;;;;;27.63;55.70;100411.85;107969;1261;61215;-76
2023/07/06 05:36:20;;;;;;;11.10;10.00;;;;;;;27.69;55.22;100408.86;107880;1257;75593;-76
2023/07/06 05:38:46;;;;;;;13.00;10.20;;;;;;;27.78;55.19;100396.27;107796;1262;72090;-76
2023/07/06 05:41:14;;;;;;;11.90;10.30;;;;;;;27.80;54.86;100401.08;107950;1261;72398;-77
2023/07/06 05:43:42;;;;;;;11.80;10.60;;;;;;;27.77;55.06;100395.63;107905;1261;61102;-77
2023/07/06 05:46:10;;;;;;;11.30;10.20;;;;;;;27.77;55.29;100391.25;107803;1262;60617;-78
2023/07/06 05:48:37;;;;;;;12.30;10.50;;;;;;;27.77;55.25;100392.40;107729;1257;66129;-77
2023/07/06 05:51:04;;;;;;;12.60;11.10;;;;;;;27.73;55.45;100392.59;107882;1261;71797;-76
2023/07/06 05:53:31;;;;;;;11.40;10.00;;;;;;;27.72;55.07;100386.63;107830;1261;72509;-77
2023/07/06 05:55:59;;;;;;;13.10;11.80;;;;;;;27.72;54.86;100379.73;107862;1263;61221;-77
2023/07/06 05:58:26;;;;;;;12.50;11.30;;;;;;;27.70;55.02;100386.66;107928;1260;61170;-76
2023/07/06 06:00:56;;;;;;;12.80;11.40;;;;;;;27.66;55.18;100384.59;107899;1258;74581;-77
2023/07/06 06:03:23;;;;;;;13.60;12.20;;;;;;;27.64;55.11;100383.72;107757;1257;72629;-76
2023/07/06 06:05:52;;;;;;;14.70;12.00;;;;;;;27.69;55.20;100389.56;107685;1263;72672;-75
2023/07/06 06:08:19;;;;;;;14.30;12.30;;;;;;;27.77;54.94;100389.98;107904;1257;61130;-76
2023/07/06 06:10:50;;;;;;;13.50;12.10;;;;;;;27.78;55.00;100388.42;107894;1261;61148;-75
2023/07/06 06:13:18;;;;;;;13.40;12.10;;;;;;;27.87;55.02;100386.30;107921;1261;74691;-75
2023/07/06 06:16:19;;;;;;;13.00;11.10;;;;;;;27.99;55.11;100388.61;107940;1260;72797;-76
2023/07/06 06:18:46;;;;;;;12.80;11.50;;;;;;;28.18;54.66;100391.28;107902;1257;72561;-75
2023/07/06 06:21:13;;;;;;;13.70;12.30;;;;;;;28.36;54.52;100389.70;107716;1257;61244;-75
2023/07/06 06:23:42;;;;;;;13.60;12.10;;;;;;;28.59;54.24;100387.34;107979;1257;61352;-75
2023/07/06 06:26:09;;;;;;;14.60;12.10;;;;;;;28.84;53.77;100391.88;107973;1257;66034;-73
2023/07/06 06:28:36;;;;;;;14.10;12.30;;;;;;;29.04;53.15;100396.40;107990;1257;64177;-75
2023/07/06 06:31:08;;;;;;;13.20;11.50;;;;;;;29.22;52.50;100394.43;108027;1261;63847;-75
2023/07/06 06:33:34;;;;;;;;;;;;;;;29.42;52.16;100396.68;107875;1256;60434;-75
2023/07/06 06:36:03;;;;;;;12.10;10.90;;;;;;;29.61;52.03;100395.80;107788;1258;59670;-75
2023/07/06 06:38:34;;;;;;;10.90;9.80;;;;;;;29.80;51.75;100396.55;107924;1260;66136;-75
2023/07/06 06:41:03;;;;;;;12.90;10.50;;;;;;;30.00;51.57;100396.16;107799;1260;64204;-75
2023/07/06 06:43:30;;;;;;;12.50;11.20;;;;;;;30.13;50.94;100397.27;108022;1257;63297;-75
2023/07/06 06:45:57;;;;;;;13.10;11.70;;;;;;;30.12;50.51;100400.90;107904;1260;61149;-75
2023/07/06 06:48:25;;;;;;;11.50;10.40;;;;;;;30.12;50.27;100400.81;107950;1258;59190;-75
2023/07/06 06:50:52;;;;;;;12.80;11.50;;;;;;;30.15;50.31;100399.71;107966;1258;65902;-75
2023/07/06 06:53:23;;;;;;;13.50;12.10;;;;;;;30.20;50.13;100397.38;108004;1260;64321;-75
2023/07/06 06:55:50;;;;;;;11.20;10.10;;;;;;;30.18;49.93;100395.23;107937;1257;64058;-75
2023/07/06 06:58:18;;;;;;;10.40;9.30;;;;;;;30.16;49.70;100393.95;107964;1257;61199;-74
2023/07/06 07:00:46;;;;;;;10.40;9.40;;;;;;;30.12;49.72;100390.57;107989;1258;61321;-74
2023/07/06 07:03:17;;;;;;;9.90;9.00;;;;;;;30.08;49.92;100389.95;107978;1258;65840;-76
2023/07/06 07:05:45;;;;;;;10.80;9.70;;;;;;;30.09;50.32;100398.52;107885;1258;64049;-75
2023/07/06 07:08:13;;;;;;;10.30;9.20;;;;;;;30.11;50.41;100398.52;107800;1257;64074;-75
2023/07/06 07:10:41;;;;;;;10.50;9.40;;;;;;;30.14;49.91;100391.52;107961;1258;61181;-75
2023/07/06 07:13:08;;;;;;;10.40;9.40;;;;;;;30.23;49.55;100393.59;107962;1256;59295;-75
2023/07/06 07:15:37;;;;;;;10.40;9.40;;;;;;;30.39;49.33;100394.98;108035;1260;66008;-75
2023/07/06 07:18:04;;;;;;;10.90;9.80;;;;;;;30.59;48.84;100397.23;108009;1260;64224;-75
2023/07/06 07:20:31;;;;;;;10.70;9.60;;;;;;;30.79;48.70;100401.15;107970;1258;64127;-75
2023/07/06 07:22:58;;;;;;;11.10;9.80;;;;;;;30.99;48.48;100397.61;107814;1257;61205;-75
2023/07/06 07:25:27;;;;;;;11.30;10.20;;;;;;;31.15;47.87;100399.13;107992;1257;61097;-75
2023/07/06 07:27:57;;;;;;;10.50;9.50;;;;;;;31.23;46.73;100396.17;107820;1257;65937;-76
2023/07/06 07:30:26;;;;;;;9.60;8.80;;;;;;;31.23;46.04;100400.12;107982;1257;64127;-76
2023/07/06 07:32:53;;;;;;;10.00;9.00;;;;;;;31.23;46.28;100402.09;107948;1260;62522;-75
2023/07/06 07:35:19;;;;;;;10.30;9.40;;;;;;;31.27;46.17;100401.02;107889;1257;61257;-75
2023/07/06 07:37:50;;;;;;;10.40;9.50;;;;;;;31.31;45.95;100396.38;107909;1257;61168;-74
2023/07/06 07:40:19;;;;;;;9.20;8.40;;;;;;;31.41;45.91;100395.70;107878;1257;65934;-75
2023/07/06 07:42:46;;;;;;;8.30;7.50;;;;;;;31.55;45.21;100390.96;108036;1257;63838;-74
2023/07/06 07:45:13;;;;;;;9.30;8.30;;;;;;;31.68;44.16;100389.94;107930;1257;62630;-75
2023/07/06 07:47:41;;;;;;;8.80;8.00;;;;;;;31.83;44.14;100388.34;107852;1257;61109;-75
2023/07/06 07:50:08;;;;;;;8.70;7.40;;;;;;;31.98;43.41;100389.34;107906;1258;61200;-74
2023/07/06 07:52:35;;;;;;;8.80;8.00;;;;;;;32.13;42.92;100393.00;107715;1261;65900;-75
2023/07/06 07:55:02;;;;;;;8.60;7.80;;;;;;;32.23;42.64;100391.41;107930;1257;64098;-74
2023/07/06 07:57:30;;;;;;;8.00;7.20;;;;;;;32.32;41.83;100391.02;107817;1262;64130;-74
2023/07/06 07:59:57;;;;;;;8.40;7.60;;;;;;;32.39;41.21;100388.48;107807;1257;60291;-75
2023/07/06 08:02:24;;;;;;;8.50;7.70;;;;;;;32.41;40.83;100391.79;107865;1257;61267;-75
2023/07/06 08:04:52;;;;;;;7.70;7.00;;;;;;;32.42;40.65;100389.20;107715;1257;65954;-74
2023/07/06 08:07:19;;;;;;;7.50;6.80;;;;;;;32.45;40.15;100387.98;107734;1262;64135;-74
2023/07/06 08:09:46;;;;;;;7.20;6.50;;;;;;;32.51;39.72;100388.40;107782;1257;62594;-75
2023/07/06 08:12:13;;;;;;;7.30;6.50;;;;;;;32.63;39.94;100388.98;107832;1257;61314;-74
2023/07/06 08:14:42;;;;;;;7.40;6.70;;;;;;;32.80;39.80;100388.86;107905;1257;61159;-75
2023/07/06 08:17:10;;;;;;;8.40;6.80;;;;;;;33.01;39.81;100385.33;107863;1258;66114;-74
2023/07/06 08:19:40;;;;;;;7.50;6.70;;;;;;;33.23;38.70;100382.35;107918;1257;64109;-74
2023/07/06 08:22:29;;;;;;;7.50;6.70;;;;;;;33.35;37.56;100385.34;107962;1257;64162;-74
2023/07/06 08:24:56;;;;;;;7.70;6.80;;;;;;;33.37;37.49;100387.42;107952;1258;61266;-74
2023/07/06 08:27:23;;;;;;;7.00;6.40;;;;;;;33.42;37.64;100387.45;107930;1257;59376;-75
2023/07/06 08:29:51;;;;;;;6.60;5.70;;;;;;;33.45;36.64;100391.21;107896;1257;65847;-74
2023/07/06 08:32:19;;;;;;;6.50;5.90;;;;;;;33.50;37.06;100387.76;107850;1257;64441;-73
2023/07/06 08:34:47;;;;;;;5.80;5.00;;;;;;;33.59;35.95;100385.80;107897;1260;63857;-75
2023/07/06 08:37:17;;;;;;;7.00;6.30;;;;;;;33.69;35.47;100385.80;107913;1257;60971;-75
2023/07/06 08:39:44;;;;;;;6.70;6.10;;;;;;;33.77;35.85;100384.57;107898;1257;61337;-74
2023/07/06 08:42:14;;;;;;;6.90;6.20;;;;;;;33.87;35.54;100383.61;107949;1257;66044;-74
2023/07/06 08:44:50;;;;;;;6.80;6.10;;;;;;;33.92;34.44;100380.15;107915;1257;63019;-75
2023/07/06 08:47:17;;;;;;;6.10;5.50;;;;;;;33.92;34.50;100377.45;107972;1257;63853;-75
2023/07/06 08:49:46;;;;;;;6.70;6.00;;;;;;;33.95;34.55;100376.77;107942;1257;61358;-75
2023/07/06 08:52:13;;;;;;;8.30;6.10;;;;;;;34.01;35.05;100375.49;107827;1257;61097;-75
2023/07/06 08:54:41;;;;;;;5.80;5.30;;;;;;;34.03;33.81;100373.33;107625;1257;65838;-75
2023/07/06 08:57:15;;;;;;;7.10;5.60;;;;;;;33.93;33.79;100373.40;107788;1258;64261;-75
2023/07/06 08:59:43;;;;;;;6.60;5.20;;;;;;;33.84;33.92;100370.77;107829;1256;64061;-75
2023/07/06 09:02:18;;;;;;;6.10;5.50;;;;;;;33.77;33.32;100370.41;107969;1257;61254;-76
2023/07/06 09:04:46;;;;;;;5.80;5.20;;;;;;;33.72;33.49;100367.56;107943;1256;61208;-75
2023/07/06 09:07:17;;;;;;;6.10;5.50;;;;;;;33.78;34.43;100368.10;107930;1257;65789;-75
2023/07/06 09:09:46;;;;;;;5.80;5.20;;;;;;;33.94;34.51;100362.78;107874;1260;63005;-75
2023/07/06 09:12:32;;;;;;;6.00;5.50;;;;;;;34.11;33.88;100366.46;107898;1257;64070;-75
2023/07/06 09:14:59;;;;;;;6.20;5.70;;;;;;;34.23;33.96;100363.48;107627;1257;61262;-76
2023/07/06 09:17:27;;;;;;;6.10;5.30;;;;;;;34.37;34.29;100362.19;107757;1257;61200;-75
2023/07/06 09:19:54;;;;;;;5.60;5.00;;;;;;;34.55;33.11;100360.52;107872;1257;65778;-75
2023/07/06 09:22:22;;;;;;;5.40;4.90;;;;;;;34.64;31.75;100360.84;107833;1257;63962;-76
2023/07/06 09:24:50;;;;;;;5.50;4.90;;;;;;;34.60;31.83;100361.15;107925;1257;63806;-76
2023/07/06 09:27:21;;;;;;;5.70;5.10;;;;;;;34.62;32.27;100365.31;107835;1257;61207;-74
2023/07/06 09:30:05;;;;;;;5.60;5.10;;;;;;;34.72;32.38;100360.10;107843;1258;61133;-74
2023/07/06 09:32:35;;;;;;;5.50;5.00;;;;;;;34.92;32.34;100360.80;107763;1257;65888;-74
2023/07/06 09:35:12;;;;;;;5.00;4.50;;;;;;;35.06;31.98;100362.20;107855;1256;62971;-74
2023/07/06 09:37:46;;;;;;;5.90;4.70;;;;;;;35.05;31.58;100361.04;107849;1257;64963;-74
2023/07/06 09:40:14;;;;;;;7.50;5.60;;;;;;;35.09;31.47;100363.08;107725;1257;61161;-74
2023/07/06 09:42:54;;;;;;;8.10;5.80;;;;;;;35.16;31.24;100362.52;107880;1257;59233;-74
2023/07/06 09:45:23;;;;;;;5.70;5.20;;;;;;;35.21;31.14;100358.20;107712;1257;65943;-74
2023/07/06 09:47:55;;;;;;;5.70;5.00;;;;;;;35.34;31.30;100355.78;107793;1257;64004;-74
2023/07/06 09:50:32;;;;;;;5.80;5.20;;;;;;;35.35;31.16;100358.30;107790;1258;62482;-74
2023/07/06 09:53:00;;;;;;;5.30;4.80;;;;;;;35.34;30.97;100358.89;107753;1257;61199;-75
2023/07/06 09:55:30;;;;;;;5.40;4.90;;;;;;;35.39;31.27;100360.42;107585;1260;61142;-77
2023/07/06 09:58:00;;;;;;;5.10;4.60;;;;;;;35.54;31.34;100361.36;107826;1257;64814;-74
2023/07/06 10:00:47;;;;;;;5.30;4.80;;;;;;;35.75;31.52;100363.24;107870;1258;62788;-77
2023/07/06 10:03:50;;;;;;;5.40;4.70;;;;;;;35.98;31.72;100359.19;107824;1258;63763;-75
2023/07/06 10:06:34;;;;;;;6.10;5.50;;;;;;;36.14;31.21;100359.83;107561;1262;61016;-74
2023/07/06 10:09:14;;;;;;;5.30;4.80;;;;;;;36.15;30.89;100356.70;107784;1257;61103;-75
2023/07/06 10:12:12;;;;;;;5.50;5.00;;;;;;;36.15;31.03;100357.17;107857;1257;65960;-76
2023/07/06 10:14:49;;;;;;;5.40;4.70;;;;;;;36.11;31.45;100355.77;107846;1257;64125;-76
2023/07/06 10:17:39;;;;;;;6.10;4.70;;;;;;;36.05;30.96;100357.27;107883;1257;62845;-75
2023/07/06 10:20:19;;;;;;;5.30;4.60;;;;;;;35.85;30.70;100355.30;107867;1256;61132;-75
2023/07/06 10:23:04;;;;;;;5.70;5.00;;;;;;;35.69;30.94;100356.10;107926;1257;61153;-75
2023/07/06 10:25:33;;;;;;;5.80;5.30;;;;;;;35.73;30.72;100357.42;107950;1256;66161;-74
2023/07/06 10:28:16;;;;;;;5.70;5.10;;;;;;;35.72;30.36;100351.49;107921;1257;64257;-75
2023/07/06 10:30:49;;;;;;;6.10;5.30;;;;;;;35.78;30.58;100349.92;107798;1257;64153;-76
2023/07/06 10:33:27;;;;;;;6.50;5.10;;;;;;;35.94;31.04;100346.73;107824;1257;60965;-75
2023/07/06 10:35:55;;;;;;;6.00;5.20;;;;;;;36.19;31.20;100343.01;107793;1259;61276;-75
2023/07/06 10:38:23;;;;;;;6.40;4.80;;;;;;;36.38;30.59;100339.77;107840;1257;66108;-76
2023/07/06 10:41:12;;;;;;;5.40;4.90;;;;;;;36.60;30.02;100338.80;107780;1257;63985;-74
2023/07/06 10:43:41;;;;;;;5.70;5.00;;;;;;;36.77;29.34;100338.80;107803;1256;63841;-77
2023/07/06 10:46:35;;;;;;;6.50;5.20;;;;;;;36.76;29.12;100336.42;107872;1256;61107;-75
2023/07/06 10:49:17;;;;;;;5.60;5.00;;;;;;;36.66;29.41;100339.98;107904;1256;61143;-76
2023/07/06 10:51:50;;;;;;;5.50;5.00;;;;;;;36.52;29.05;100340.84;107956;1260;67739;-76
2023/07/06 10:54:28;;;;;;;4.70;4.30;;;;;;;36.37;29.48;100337.50;107944;1257;64071;-75
2023/07/06 10:57:10;;;;;;;6.40;5.20;;;;;;;36.32;29.98;100336.95;107835;1257;64063;-75
2023/07/06 10:59:44;;;;;;;5.30;4.80;;;;;;;36.28;29.72;100332.75;107739;1256;61214;-75
2023/07/06 11:02:20;;;;;;;5.90;5.30;;;;;;;36.30;29.46;100333.89;107780;1256;61634;-75
2023/07/06 11:05:10;;;;;;;5.30;4.80;;;;;;;36.34;29.96;100330.27;107796;1257;66128;-73
2023/07/06 11:07:42;;;;;;;5.90;5.40;;;;;;;36.30;30.24;100329.18;107882;1256;64097;-74
2023/07/06 11:10:17;;;;;;;5.80;5.10;;;;;;;36.23;30.60;100325.43;107868;1256;64066;-74
2023/07/06 11:13:01;;;;;;;6.20;5.60;;;;;;;36.20;30.87;100324.32;107888;1256;61306;-74
2023/07/06 11:15:40;;;;;;;5.60;5.00;;;;;;;36.27;30.36;100324.20;107882;1257;59237;-75
2023/07/06 11:18:14;;;;;;;5.60;5.10;;;;;;;36.37;30.03;100320.80;107991;1256;66040;-74
2023/07/06 11:20:42;;;;;;;6.50;5.30;;;;;;;36.51;29.87;100316.41;107853;1257;64187;-75
2023/07/06 11:23:12;;;;;;;5.90;5.20;;;;;;;36.54;30.06;100315.27;107824;1262;64089;-75
2023/07/06 11:25:40;;;;;;;;;;;;;;;36.64;30.64;100313.49;107893;1260;61343;-75